createdAt,value
2019-05-26T00:01:30.394Z,58.41
2019-05-26T00:04:01.655Z,58.48
2019-05-26T00:06:31.756Z,58.45
2019-05-26T00:09:01.841Z,58.46
2019-05-26T00:11:32.354Z,58.45
2019-05-26T00:14:02.473Z,58.41
2019-05-26T00:16:32.621Z,58.38
2019-05-26T00:19:02.668Z,58.58
2019-05-26T00:21:32.780Z,58.58
2019-05-26T00:24:02.837Z,58.60
2019-05-26T00:26:32.983Z,58.63
2019-05-26T00:29:03.015Z,58.75
2019-05-26T00:31:33.223Z,58.97
2019-05-26T00:34:03.339Z,58.98
2019-05-26T00:36:34.659Z,58.98
2019-05-26T00:39:05.888Z,58.99
2019-05-26T00:41:36.020Z,58.92
2019-05-26T00:44:06.070Z,58.92
2019-05-26T00:46:36.132Z,58.81
2019-05-26T00:49:06.198Z,58.79
2019-05-26T00:51:37.208Z,58.74
2019-05-26T00:54:07.270Z,58.64
2019-05-26T00:56:37.300Z,58.61
2019-05-26T00:59:07.358Z,58.55
2019-05-26T01:01:37.409Z,58.59
2019-05-26T01:04:07.449Z,58.57
2019-05-26T01:06:37.508Z,58.56
2019-05-26T01:09:08.779Z,58.50
2019-05-26T01:11:38.865Z,58.51
2019-05-26T01:14:09.861Z,58.61
2019-05-26T01:16:40.937Z,58.68
2019-05-26T01:19:10.988Z,58.70
2019-05-26T01:21:41.095Z,58.66
2019-05-26T01:24:11.173Z,58.75
2019-05-26T01:26:41.223Z,58.86
2019-05-26T01:29:11.297Z,58.91
2019-05-26T01:31:41.328Z,58.98
2019-05-26T01:34:12.370Z,59.01
2019-05-26T01:36:42.452Z,58.95
2019-05-26T01:39:12.512Z,59.00
2019-05-26T01:41:42.639Z,59.04
2019-05-26T01:44:12.697Z,59.08
2019-05-26T01:46:42.766Z,59.20
2019-05-26T01:49:14.382Z,59.30
2019-05-26T01:51:44.435Z,59.27
2019-05-26T01:54:14.508Z,59.34
2019-05-26T01:56:44.569Z,59.28
2019-05-26T01:59:15.584Z,59.21
2019-05-26T02:01:45.666Z,59.25
2019-05-26T02:04:16.674Z,59.29
2019-05-26T02:06:46.738Z,59.44
2019-05-26T02:09:16.787Z,59.47
2019-05-26T02:11:48.493Z,59.53
2019-05-26T02:14:18.523Z,59.60
2019-05-26T02:16:48.582Z,59.78
2019-05-26T02:19:18.625Z,59.84
2019-05-26T02:21:48.843Z,59.99
2019-05-26T02:24:18.903Z,60.11
2019-05-26T02:26:48.955Z,60.22
2019-05-26T02:29:19.011Z,60.23
2019-05-26T02:31:49.074Z,60.24
2019-05-26T02:34:19.142Z,60.18
2019-05-26T02:36:49.206Z,60.19
2019-05-26T02:39:19.342Z,60.23
2019-05-26T02:41:49.485Z,60.36
2019-05-26T02:44:19.525Z,60.39
2019-05-26T02:46:49.589Z,60.34
2019-05-26T02:49:19.687Z,60.28
2019-05-26T02:51:49.837Z,60.42
2019-05-26T02:54:21.168Z,60.54
2019-05-26T02:56:51.226Z,60.67
2019-05-26T02:59:21.349Z,60.70
2019-05-26T03:02:02.990Z,60.81
2019-05-26T03:04:23.321Z,60.79
2019-05-26T03:06:53.354Z,60.89
2019-05-26T03:09:23.956Z,60.85
2019-05-26T03:11:54.133Z,60.86
2019-05-26T03:14:24.278Z,60.96
2019-05-26T03:16:54.327Z,60.92
2019-05-26T03:19:24.385Z,60.88
2019-05-26T03:21:54.444Z,60.94
2019-05-26T03:24:24.513Z,60.98
2019-05-26T03:26:54.557Z,61.08
2019-05-26T03:29:24.620Z,61.21
2019-05-26T03:31:54.691Z,61.19
2019-05-26T03:34:24.738Z,61.05
2019-05-26T03:36:54.805Z,61.13
2019-05-26T03:39:42.436Z,61.17
2019-05-26T03:41:56.602Z,61.29
2019-05-26T03:44:26.631Z,61.37
2019-05-26T03:46:56.748Z,61.48
2019-05-26T03:49:26.779Z,61.53
2019-05-26T03:51:56.876Z,61.60
2019-05-26T03:54:26.908Z,61.56
2019-05-26T03:56:56.979Z,61.56
2019-05-26T03:59:27.038Z,61.47
2019-05-26T04:01:57.856Z,61.37
2019-05-26T04:04:28.207Z,61.30
2019-05-26T04:06:58.277Z,61.21
2019-05-26T04:09:28.332Z,61.13
2019-05-26T04:11:58.390Z,61.11
2019-05-26T04:14:28.544Z,61.11
2019-05-26T04:16:59.711Z,61.09
2019-05-26T04:19:29.785Z,61.09
2019-05-26T04:22:01.342Z,61.07
2019-05-26T04:24:31.425Z,61.05
2019-05-26T04:27:02.603Z,61.06
2019-05-26T04:29:32.632Z,61.02
2019-05-26T04:32:02.689Z,60.99
2019-05-26T04:34:32.731Z,60.94
2019-05-26T04:37:02.812Z,60.89
2019-05-26T04:39:32.852Z,60.86
2019-05-26T04:42:02.908Z,60.84
2019-05-26T04:44:33.925Z,60.83
2019-05-26T04:47:03.989Z,60.90
2019-05-26T04:49:37.379Z,60.85
2019-05-26T04:52:05.818Z,60.83
2019-05-26T04:54:35.897Z,60.83
2019-05-26T04:57:06.085Z,60.76
2019-05-26T04:59:36.130Z,60.73
2019-05-26T05:02:07.170Z,60.62
2019-05-26T05:04:37.217Z,60.59
2019-05-26T05:07:07.276Z,60.65
2019-05-26T05:09:37.309Z,60.65
2019-05-26T05:12:07.420Z,60.68
2019-05-26T05:14:37.464Z,60.76
2019-05-26T05:17:07.562Z,60.76
2019-05-26T05:19:37.609Z,60.82
2019-05-26T05:22:07.759Z,60.88
2019-05-26T05:24:37.859Z,60.91
2019-05-26T05:27:08.944Z,60.96
2019-05-26T05:29:38.972Z,60.99
2019-05-26T05:32:09.017Z,61.01
2019-05-26T05:34:39.092Z,61.02
2019-05-26T05:37:09.143Z,60.99
2019-05-26T05:39:39.183Z,60.92
2019-05-26T05:42:12.260Z,60.98
2019-05-26T05:44:45.136Z,60.95
2019-05-26T05:47:15.175Z,61.01
2019-05-26T05:49:45.252Z,60.94
2019-05-26T05:52:15.303Z,60.91
2019-05-26T05:54:45.351Z,60.99
2019-05-26T05:57:18.420Z,61.03
2019-05-26T05:59:48.484Z,61.07
2019-05-26T06:02:18.511Z,61.09
2019-05-26T06:04:48.600Z,61.45
2019-05-26T06:07:18.653Z,61.59
2019-05-26T06:09:48.701Z,61.75
2019-05-26T06:12:18.729Z,62.01
2019-05-26T06:14:50.200Z,62.06
2019-05-26T06:17:20.228Z,62.25
2019-05-26T06:19:50.290Z,62.57
2019-05-26T06:22:20.352Z,62.59
2019-05-26T06:24:50.401Z,62.61
2019-05-26T06:27:20.608Z,62.65
2019-05-26T06:29:58.970Z,62.65
2019-05-26T06:32:22.421Z,62.66
2019-05-26T06:34:52.469Z,62.65
2019-05-26T06:37:22.536Z,62.66
2019-05-26T06:39:52.571Z,62.80
2019-05-26T06:42:22.897Z,62.98
2019-05-26T06:44:54.171Z,63.27
2019-05-26T06:47:24.335Z,63.39
2019-05-26T06:49:54.374Z,63.37
2019-05-26T06:52:24.436Z,63.32
2019-05-26T06:54:54.514Z,63.32
2019-05-26T06:57:24.582Z,63.27
2019-05-26T06:59:54.657Z,63.16
2019-05-26T07:02:24.691Z,62.96
2019-05-26T07:04:54.753Z,62.79
2019-05-26T07:07:24.792Z,62.68
2019-05-26T07:09:54.889Z,62.62
2019-05-26T07:12:24.932Z,62.61
2019-05-26T07:14:54.993Z,62.58
2019-05-26T07:17:25.048Z,62.75
2019-05-26T07:19:55.191Z,62.82
2019-05-26T07:22:25.239Z,62.84
2019-05-26T07:24:55.276Z,62.87
2019-05-26T07:27:25.339Z,62.89
2019-05-26T07:29:56.336Z,63.13
2019-05-26T07:32:26.415Z,63.19
2019-05-26T07:34:56.469Z,63.26
2019-05-26T07:37:26.541Z,63.24
2019-05-26T07:39:56.585Z,63.33
2019-05-26T07:42:27.625Z,63.39
2019-05-26T07:45:00.480Z,63.48
2019-05-26T07:47:30.571Z,63.47
2019-05-26T07:50:00.682Z,63.62
2019-05-26T07:52:30.734Z,63.75
2019-05-26T07:55:00.809Z,63.79
2019-05-26T07:57:33.819Z,63.84
2019-05-26T08:00:03.933Z,63.82
2019-05-26T08:02:33.954Z,63.82
2019-05-26T08:05:04.468Z,63.91
2019-05-26T08:07:34.527Z,63.84
2019-05-26T08:10:05.262Z,63.90
2019-05-26T08:12:35.292Z,63.91
2019-05-26T08:15:06.295Z,64.01
2019-05-26T08:17:37.396Z,64.08
2019-05-26T08:20:08.422Z,64.08
2019-05-26T08:22:38.454Z,64.13
2019-05-26T08:25:08.537Z,64.06
2019-05-26T08:27:38.560Z,63.99
2019-05-26T08:30:08.673Z,63.94
2019-05-26T08:32:38.737Z,63.99
2019-05-26T08:35:08.765Z,63.99
2019-05-26T08:37:38.836Z,63.98
2019-05-26T08:40:20.984Z,63.92
2019-05-26T08:42:51.117Z,63.87
2019-05-26T08:45:22.475Z,63.79
2019-05-26T08:47:52.999Z,63.78
2019-05-26T08:50:23.196Z,63.76
2019-05-26T08:52:53.312Z,63.71
2019-05-26T08:55:23.553Z,63.70
2019-05-26T08:57:53.622Z,63.69
2019-05-26T09:00:23.684Z,63.71
2019-05-26T09:02:53.770Z,63.72
2019-05-26T09:05:23.841Z,63.71
2019-05-26T09:07:53.920Z,63.70
2019-05-26T09:10:24.266Z,63.66
2019-05-26T09:13:00.633Z,63.65
2019-05-26T09:15:26.190Z,63.57
2019-05-26T09:17:56.318Z,63.69
2019-05-26T09:20:26.469Z,63.72
2019-05-26T09:22:56.521Z,63.86
2019-05-26T09:25:26.616Z,63.97
2019-05-26T09:27:56.700Z,64.05
2019-05-26T09:30:26.764Z,64.16
2019-05-26T09:32:56.961Z,64.25
2019-05-26T09:35:27.077Z,64.35
2019-05-26T09:37:57.307Z,64.38
2019-05-26T09:40:27.349Z,64.34
2019-05-26T09:42:57.410Z,64.37
2019-05-26T09:45:28.560Z,64.27
2019-05-26T09:47:58.597Z,64.22
2019-05-26T09:50:28.782Z,64.26
2019-05-26T09:52:58.895Z,64.22
2019-05-26T09:55:29.288Z,64.06
2019-05-26T09:57:59.354Z,64.10
2019-05-26T10:00:29.409Z,64.05
2019-05-26T10:02:59.457Z,63.97
2019-05-26T10:05:29.656Z,64.00
2019-05-26T10:07:59.767Z,63.95
2019-05-26T10:10:29.851Z,63.90
2019-05-26T10:13:00.913Z,63.93
2019-05-26T10:15:32.079Z,63.98
2019-05-26T10:18:02.130Z,63.99
2019-05-26T10:20:32.176Z,64.07
2019-05-26T10:23:04.558Z,64.19
2019-05-26T10:25:34.670Z,64.16
2019-05-26T10:28:04.710Z,64.22
2019-05-26T10:30:34.771Z,64.20
2019-05-26T10:33:04.838Z,64.28
2019-05-26T10:35:35.985Z,64.32
2019-05-26T10:38:06.365Z,64.39
2019-05-26T10:40:36.814Z,64.53
2019-05-26T10:43:06.854Z,64.61
2019-05-26T10:45:36.984Z,64.73
2019-05-26T10:48:07.077Z,64.87
2019-05-26T10:50:37.145Z,65.04
2019-05-26T10:53:07.216Z,65.08
2019-05-26T10:55:37.276Z,65.03
2019-05-26T10:58:07.344Z,65.05
2019-05-26T11:00:37.737Z,65.03
2019-05-26T11:03:07.976Z,65.12
2019-05-26T11:05:38.142Z,65.10
2019-05-26T11:08:08.193Z,65.13
2019-05-26T11:10:38.249Z,65.26
2019-05-26T11:13:08.491Z,65.31
2019-05-26T11:15:38.588Z,65.36
2019-05-26T11:18:08.662Z,65.42
2019-05-26T11:20:38.729Z,65.48
2019-05-26T11:23:08.773Z,65.47
2019-05-26T11:25:38.837Z,65.44
2019-05-26T11:28:09.358Z,65.48
2019-05-26T11:30:39.425Z,65.56
2019-05-26T11:33:09.487Z,65.60
2019-05-26T11:35:40.563Z,65.50
2019-05-26T11:38:10.604Z,65.62
2019-05-26T11:40:40.681Z,65.57
2019-05-26T11:43:16.616Z,65.52
2019-05-26T11:45:42.501Z,65.44
2019-05-26T11:48:12.557Z,65.29
2019-05-26T11:50:43.029Z,65.13
2019-05-26T11:53:13.037Z,64.98
2019-05-26T11:55:43.305Z,65.04
2019-05-26T11:58:13.370Z,65.09
2019-05-26T12:00:43.442Z,65.01
2019-05-26T12:03:13.510Z,64.97
2019-05-26T12:05:43.588Z,64.98
2019-05-26T12:08:13.638Z,64.89
2019-05-26T12:10:43.727Z,64.92
2019-05-26T12:13:13.787Z,64.95
2019-05-26T12:15:43.827Z,65.15
2019-05-26T12:18:14.218Z,65.23
2019-05-26T12:20:46.333Z,65.36
2019-05-26T12:23:16.399Z,65.38
2019-05-26T12:25:46.453Z,65.21
2019-05-26T12:28:16.572Z,65.27
2019-05-26T12:30:46.631Z,65.16
2019-05-26T12:33:19.065Z,65.12
2019-05-26T12:35:49.064Z,64.99
2019-05-26T12:38:19.620Z,65.03
2019-05-26T12:40:49.714Z,64.97
2019-05-26T12:43:19.909Z,64.95
2019-05-26T12:45:49.973Z,64.91
2019-05-26T12:48:20.139Z,64.99
2019-05-26T12:50:50.374Z,65.06
2019-05-26T12:53:20.468Z,65.21
2019-05-26T12:55:52.843Z,65.20
2019-05-26T12:58:23.029Z,65.24
2019-05-26T13:00:54.974Z,65.35
2019-05-26T13:03:24.944Z,65.63
2019-05-26T13:05:55.004Z,65.64
2019-05-26T13:08:25.069Z,65.69
2019-05-26T13:10:55.133Z,65.67
2019-05-26T13:13:25.186Z,65.51
2019-05-26T13:15:56.020Z,65.56
2019-05-26T13:18:26.093Z,65.47
2019-05-26T13:20:56.160Z,65.30
2019-05-26T13:23:26.231Z,65.10
2019-05-26T13:25:56.285Z,64.91
2019-05-26T13:28:26.360Z,64.81
2019-05-26T13:30:56.400Z,64.76
2019-05-26T13:33:26.472Z,64.81
2019-05-26T13:35:56.533Z,64.81
2019-05-26T13:38:26.631Z,64.75
2019-05-26T13:40:56.656Z,64.79
2019-05-26T13:43:26.868Z,64.72
2019-05-26T13:45:56.944Z,64.76
2019-05-26T13:48:27.047Z,64.71
2019-05-26T13:50:57.133Z,64.79
2019-05-26T13:53:27.186Z,64.81
2019-05-26T13:55:57.240Z,64.88
2019-05-26T13:58:27.283Z,64.83
2019-05-26T14:00:58.096Z,64.73
2019-05-26T14:03:28.200Z,64.69
2019-05-26T14:05:58.269Z,64.77
2019-05-26T14:08:28.485Z,64.75
2019-05-26T14:10:58.564Z,64.86
2019-05-26T14:13:29.673Z,64.85
2019-05-26T14:16:01.795Z,64.81
2019-05-26T14:18:32.917Z,64.59
2019-05-26T14:21:02.996Z,64.38
2019-05-26T14:23:33.021Z,64.33
2019-05-26T14:26:03.184Z,64.36
2019-05-26T14:28:33.225Z,64.55
2019-05-26T14:31:03.306Z,64.67
2019-05-26T14:33:33.373Z,64.54
2019-05-26T14:36:03.486Z,64.29
2019-05-26T14:38:42.835Z,64.11
2019-05-26T14:41:05.271Z,64.08
2019-05-26T14:43:35.345Z,63.98
2019-05-26T14:46:05.388Z,63.75
2019-05-26T14:48:35.483Z,63.85
2019-05-26T14:51:07.136Z,63.65
2019-05-26T14:53:37.275Z,63.43
2019-05-26T14:56:07.335Z,63.12
2019-05-26T14:58:37.391Z,63.07
2019-05-26T15:01:07.470Z,62.55
2019-05-26T15:03:37.527Z,62.19
2019-05-26T15:06:07.619Z,62.38
2019-05-26T15:08:37.703Z,62.17
2019-05-26T15:11:07.791Z,61.77
2019-05-26T15:13:37.825Z,61.65
2019-05-26T15:16:10.409Z,61.38
2019-05-26T15:18:39.732Z,60.54
2019-05-26T15:21:09.781Z,60.22
2019-05-26T15:23:39.878Z,59.90
2019-05-26T15:26:09.993Z,59.32
2019-05-26T15:28:40.077Z,58.83
2019-05-26T15:31:10.344Z,58.84
2019-05-26T15:33:40.386Z,58.21
2019-05-26T15:36:10.447Z,58.32
2019-05-26T15:38:43.333Z,57.99
2019-05-26T15:41:12.286Z,58.23
2019-05-26T15:43:42.401Z,57.51
2019-05-26T15:46:24.241Z,57.42
2019-05-26T15:48:44.240Z,57.22
2019-05-26T15:51:14.293Z,57.04
2019-05-26T15:53:44.352Z,57.28
2019-05-26T15:56:14.443Z,56.36
2019-05-26T15:58:44.506Z,55.58
2019-05-26T16:01:14.589Z,55.78
2019-05-26T16:03:44.671Z,55.40
2019-05-26T16:06:14.732Z,55.52
2019-05-26T16:08:44.807Z,55.03
2019-05-26T16:11:14.867Z,54.75
2019-05-26T16:13:45.013Z,55.05
2019-05-26T16:16:15.081Z,55.26
2019-05-26T16:18:45.197Z,54.42
2019-05-26T16:21:27.668Z,54.39
2019-05-26T16:23:47.141Z,54.32
2019-05-26T16:26:17.277Z,54.67
2019-05-26T16:28:47.334Z,54.36
2019-05-26T16:31:17.410Z,54.55
2019-05-26T16:33:47.452Z,55.04
2019-05-26T16:36:20.945Z,55.59
2019-05-26T16:38:49.334Z,54.40
2019-05-26T16:41:19.375Z,54.13
2019-05-26T16:43:49.416Z,54.29
2019-05-26T16:46:19.485Z,53.96
2019-05-26T16:48:49.533Z,53.83
2019-05-26T16:51:19.584Z,53.38
2019-05-26T16:53:49.663Z,53.66
2019-05-26T16:56:19.714Z,53.56
2019-05-26T16:58:49.792Z,53.53
2019-05-26T17:01:19.994Z,53.62
2019-05-26T17:03:50.051Z,53.85
2019-05-26T17:06:20.121Z,53.97
2019-05-26T17:08:50.168Z,53.96
2019-05-26T17:11:21.870Z,54.43
2019-05-26T17:13:51.913Z,54.35
2019-05-26T17:16:21.975Z,54.35
2019-05-26T17:18:52.305Z,54.54
2019-05-26T17:21:23.264Z,54.27
2019-05-26T17:23:53.330Z,54.48
2019-05-26T17:26:23.390Z,54.21
2019-05-26T17:28:53.497Z,54.35
2019-05-26T17:31:23.546Z,54.44
2019-05-26T17:33:53.681Z,54.42
2019-05-26T17:36:23.745Z,54.17
2019-05-26T17:38:53.814Z,53.91
2019-05-26T17:41:23.855Z,54.12
2019-05-26T17:43:53.892Z,54.17
2019-05-26T17:46:23.954Z,53.94
2019-05-26T17:48:53.988Z,54.26
2019-05-26T17:51:24.032Z,54.11
2019-05-26T17:53:54.114Z,53.66
2019-05-26T17:56:24.162Z,53.44
2019-05-26T17:58:54.235Z,53.57
2019-05-26T18:01:24.376Z,53.80
2019-05-26T18:03:54.434Z,54.14
2019-05-26T18:06:24.584Z,54.47
2019-05-26T18:08:54.653Z,54.66
2019-05-26T18:11:24.739Z,54.78
2019-05-26T18:13:54.812Z,54.78
2019-05-26T18:16:25.818Z,54.82
2019-05-26T18:18:55.925Z,54.71
2019-05-26T18:21:25.979Z,54.48
2019-05-26T18:23:56.018Z,54.39
2019-05-26T18:26:26.104Z,54.34
2019-05-26T18:28:56.158Z,54.41
2019-05-26T18:31:29.291Z,54.48
2019-05-26T18:33:59.447Z,54.65
2019-05-26T18:36:29.534Z,54.75
2019-05-26T18:38:59.711Z,54.80
2019-05-26T18:41:29.794Z,54.94
2019-05-26T18:44:00.870Z,55.01
2019-05-26T18:46:35.442Z,55.02
2019-05-26T18:49:05.900Z,54.84
2019-05-26T18:51:37.024Z,54.73
2019-05-26T18:54:07.217Z,54.91
2019-05-26T18:56:37.295Z,55.09
2019-05-26T18:59:07.533Z,55.42
2019-05-26T19:01:37.642Z,55.47
2019-05-26T19:04:08.680Z,55.63
2019-05-26T19:06:38.732Z,55.54
2019-05-26T19:09:09.443Z,55.67
2019-05-26T19:11:39.509Z,55.66
2019-05-26T19:14:10.351Z,55.69
2019-05-26T19:16:40.497Z,55.85
2019-05-26T19:19:10.889Z,55.89
2019-05-26T19:21:41.102Z,55.99
2019-05-26T19:24:11.184Z,56.05
2019-05-26T19:26:41.265Z,56.08
2019-05-26T19:29:13.650Z,56.13
2019-05-26T19:31:44.148Z,56.17
2019-05-26T19:34:14.323Z,56.30
2019-05-26T19:36:44.464Z,56.35
2019-05-26T19:39:14.613Z,56.31
2019-05-26T19:41:44.745Z,56.37
2019-05-26T19:44:14.792Z,56.52
2019-05-26T19:46:44.871Z,56.65
2019-05-26T19:49:14.902Z,56.66
2019-05-26T19:51:44.976Z,56.81
2019-05-26T19:54:15.020Z,56.88
2019-05-26T19:56:45.102Z,56.88
2019-05-26T19:59:15.201Z,56.85
2019-05-26T20:01:45.314Z,56.96
2019-05-26T20:04:15.459Z,56.96
2019-05-26T20:06:46.686Z,56.98
2019-05-26T20:09:16.728Z,56.96
2019-05-26T20:11:46.793Z,57.03
2019-05-26T20:14:17.032Z,56.98
2019-05-26T20:16:47.165Z,56.95
2019-05-26T20:19:17.271Z,56.82
2019-05-26T20:21:47.428Z,56.89
2019-05-26T20:24:17.728Z,56.90
2019-05-26T20:26:47.801Z,56.78
2019-05-26T20:29:17.846Z,56.82
2019-05-26T20:31:47.905Z,56.81
2019-05-26T20:34:17.977Z,56.82
2019-05-26T20:36:48.025Z,56.79
2019-05-26T20:39:18.079Z,56.70
2019-05-26T20:41:48.159Z,56.66
2019-05-26T20:44:18.218Z,56.70
2019-05-26T20:46:48.272Z,56.69
2019-05-26T20:49:20.752Z,56.70
2019-05-26T20:51:50.820Z,56.73
2019-05-26T20:54:20.908Z,56.82
2019-05-26T20:56:50.977Z,56.91
2019-05-26T20:59:21.366Z,56.96
2019-05-26T21:01:52.896Z,56.93
2019-05-26T21:04:22.959Z,56.88
2019-05-26T21:06:53.016Z,56.89
2019-05-26T21:09:23.103Z,56.91
2019-05-26T21:11:53.139Z,57.02
2019-05-26T21:14:24.949Z,57.08
2019-05-26T21:16:55.013Z,57.15
2019-05-26T21:19:25.090Z,57.17
2019-05-26T21:21:55.137Z,57.28
2019-05-26T21:24:25.296Z,57.30
2019-05-26T21:26:55.378Z,57.36
2019-05-26T21:29:25.426Z,57.37
2019-05-26T21:31:55.481Z,57.31
2019-05-26T21:34:25.555Z,57.34
2019-05-26T21:36:57.668Z,57.31
2019-05-26T21:39:27.731Z,57.39
2019-05-26T21:41:57.816Z,57.45
2019-05-26T21:44:27.902Z,57.53
2019-05-26T21:46:57.979Z,57.53
2019-05-26T21:49:28.047Z,57.51
2019-05-26T21:51:58.144Z,57.54
2019-05-26T21:54:28.249Z,57.49
2019-05-26T21:56:58.294Z,57.48
2019-05-26T21:59:28.393Z,57.52
2019-05-26T22:01:58.483Z,57.61
2019-05-26T22:04:28.498Z,57.68
2019-05-26T22:06:58.574Z,57.78
2019-05-26T22:09:28.656Z,57.86
2019-05-26T22:11:58.720Z,57.86
2019-05-26T22:14:28.778Z,57.96
2019-05-26T22:16:58.838Z,57.93
2019-05-26T22:19:28.902Z,57.88
2019-05-26T22:21:58.978Z,57.76
2019-05-26T22:24:28.997Z,57.77
2019-05-26T22:26:59.031Z,57.70
2019-05-26T22:29:30.410Z,57.60
2019-05-26T22:32:00.436Z,57.61
2019-05-26T22:34:30.497Z,57.39
2019-05-26T22:37:00.564Z,57.42
2019-05-26T22:39:30.596Z,57.59
2019-05-26T22:42:00.677Z,57.59
2019-05-26T22:44:30.705Z,57.73
2019-05-26T22:47:01.066Z,57.65
2019-05-26T22:49:31.101Z,57.50
2019-05-26T22:52:01.161Z,57.36
2019-05-26T22:54:31.221Z,57.45
2019-05-26T22:57:01.263Z,57.46
2019-05-26T22:59:31.313Z,57.40
2019-05-26T23:02:01.394Z,57.43
2019-05-26T23:04:31.418Z,57.27
2019-05-26T23:07:01.541Z,57.39
2019-05-26T23:09:32.484Z,57.21
2019-05-26T23:12:02.543Z,57.22
2019-05-26T23:14:32.720Z,57.18
2019-05-26T23:17:02.830Z,57.25
2019-05-26T23:19:32.840Z,57.13
2019-05-26T23:22:02.905Z,57.06
2019-05-26T23:24:32.969Z,56.90
2019-05-26T23:27:03.051Z,57.04
2019-05-26T23:29:33.069Z,56.83
2019-05-26T23:32:03.124Z,56.98
2019-05-26T23:34:33.253Z,57.00
2019-05-26T23:37:03.305Z,57.04
2019-05-26T23:39:34.427Z,57.07
2019-05-26T23:42:04.462Z,57.20
2019-05-26T23:44:36.089Z,57.35
2019-05-26T23:47:06.129Z,57.39
2019-05-26T23:49:36.218Z,57.47
2019-05-26T23:52:08.248Z,57.59
2019-05-26T23:54:38.301Z,57.62
2019-05-26T23:57:08.336Z,57.67
2019-05-26T23:59:38.398Z,57.81
